createdAt,value
2023-05-27T00:01:33.378Z,13.00
2023-05-27T00:03:36.241Z,15.90
2023-05-27T00:05:39.026Z,14.25
2023-05-27T00:07:42.214Z,12.65
2023-05-27T00:09:44.956Z,12.77
2023-05-27T00:11:47.579Z,13.07
2023-05-27T00:13:51.536Z,17.45
2023-05-27T00:15:54.365Z,16.02
2023-05-27T00:17:57.202Z,15.02
2023-05-27T00:20:06.874Z,14.35
2023-05-27T00:22:09.559Z,18.13
2023-05-27T00:24:12.403Z,11.93
2023-05-27T00:26:15.569Z,13.27
2023-05-27T00:28:19.389Z,17.05
2023-05-27T00:30:23.388Z,13.98
2023-05-27T00:32:26.137Z,19.08
2023-05-27T00:34:28.794Z,13.52
2023-05-27T00:36:32.765Z,18.98
2023-05-27T00:38:36.497Z,14.02
2023-05-27T00:40:41.739Z,12.43
2023-05-27T00:42:44.460Z,12.18
2023-05-27T00:44:49.981Z,16.10
2023-05-27T00:46:54.199Z,14.80
2023-05-27T00:48:56.984Z,15.15
2023-05-27T00:50:59.719Z,11.48
2023-05-27T00:53:02.852Z,11.90
2023-05-27T00:55:06.310Z,15.75
2023-05-27T00:57:08.943Z,12.63
2023-05-27T00:59:11.715Z,13.32
2023-05-27T01:01:14.385Z,13.95
2023-05-27T01:03:18.802Z,13.20
2023-05-27T01:05:22.617Z,15.27
2023-05-27T01:07:36.422Z,14.77
2023-05-27T01:09:43.635Z,12.20
2023-05-27T01:11:53.211Z,14.45
2023-05-27T01:14:01.057Z,15.13
2023-05-27T01:16:07.772Z,17.83
2023-05-27T01:18:11.569Z,12.20
2023-05-27T01:20:16.812Z,13.63
2023-05-27T01:22:21.438Z,16.02
2023-05-27T01:24:25.406Z,9.30
2023-05-27T01:26:28.057Z,17.33
2023-05-27T01:28:30.843Z,21.35
2023-05-27T01:30:33.891Z,13.07
2023-05-27T01:32:42.313Z,13.05
2023-05-27T01:34:52.324Z,15.15
2023-05-27T01:37:00.771Z,12.77
2023-05-27T01:39:05.975Z,15.82
2023-05-27T01:41:11.751Z,17.40
2023-05-27T01:43:16.672Z,12.07
2023-05-27T01:45:19.459Z,12.55
2023-05-27T01:47:22.092Z,13.23
2023-05-27T01:49:24.720Z,15.32
2023-05-27T01:51:27.349Z,19.63
2023-05-27T01:53:30.044Z,18.75
2023-05-27T01:55:32.832Z,15.85
2023-05-27T01:57:36.843Z,13.88
2023-05-27T01:59:40.075Z,16.38
2023-05-27T02:01:43.163Z,21.05
2023-05-27T02:03:46.105Z,15.25
2023-05-27T02:05:48.754Z,12.13
2023-05-27T02:07:51.392Z,15.05
2023-05-27T02:09:54.060Z,16.92
2023-05-27T02:11:56.641Z,14.13
2023-05-27T02:14:02.275Z,16.60
2023-05-27T02:16:05.090Z,18.60
2023-05-27T02:18:07.754Z,16.08
2023-05-27T02:20:11.280Z,14.52
2023-05-27T02:22:14.000Z,16.20
2023-05-27T02:24:16.637Z,13.15
2023-05-27T02:26:19.494Z,15.02
2023-05-27T02:28:22.092Z,22.75
2023-05-27T02:30:26.108Z,10.20
2023-05-27T02:32:32.216Z,12.35
2023-05-27T02:34:38.070Z,13.55
2023-05-27T02:36:40.772Z,17.00
2023-05-27T02:38:43.370Z,15.10
2023-05-27T02:40:46.137Z,10.30
2023-05-27T02:42:48.741Z,14.85
2023-05-27T02:44:51.374Z,14.68
2023-05-27T02:46:55.347Z,16.80
2023-05-27T02:48:57.952Z,14.68
2023-05-27T02:51:00.571Z,17.80
2023-05-27T02:53:03.189Z,16.58
2023-05-27T02:55:07.093Z,15.23
2023-05-27T02:57:09.734Z,17.48
2023-05-27T02:59:12.320Z,13.68
2023-05-27T03:01:15.110Z,12.82
2023-05-27T03:03:19.339Z,18.35
2023-05-27T03:05:22.153Z,14.02
2023-05-27T03:07:24.799Z,14.52
2023-05-27T03:09:27.390Z,19.67
2023-05-27T03:11:30.003Z,15.23
2023-05-27T03:13:32.617Z,14.07
2023-05-27T03:15:36.308Z,15.38
2023-05-27T03:17:39.750Z,14.15
2023-05-27T03:19:44.354Z,12.32
2023-05-27T03:21:46.984Z,17.15
2023-05-27T03:23:49.611Z,18.20
2023-05-27T03:25:52.564Z,17.23
2023-05-27T03:27:55.287Z,15.20
2023-05-27T03:29:57.929Z,21.15
2023-05-27T03:32:00.969Z,19.58
2023-05-27T03:34:03.719Z,16.00
2023-05-27T03:36:09.306Z,10.57
2023-05-27T03:38:11.956Z,13.32
2023-05-27T03:40:14.636Z,11.45
2023-05-27T03:42:17.332Z,15.00
2023-05-27T03:44:19.946Z,13.43
2023-05-27T03:46:22.633Z,13.45
2023-05-27T03:48:25.403Z,22.30
2023-05-27T03:50:28.006Z,16.17
2023-05-27T03:52:32.028Z,17.92
2023-05-27T03:54:34.700Z,14.65
2023-05-27T03:56:37.332Z,21.95
2023-05-27T03:58:40.047Z,14.73
2023-05-27T04:00:42.877Z,10.35
2023-05-27T04:02:45.627Z,20.73
2023-05-27T04:04:48.316Z,21.75
2023-05-27T04:06:51.010Z,17.73
2023-05-27T04:08:55.026Z,18.27
2023-05-27T04:10:57.737Z,14.48
2023-05-27T04:13:00.384Z,13.10
2023-05-27T04:15:03.013Z,17.83
2023-05-27T04:17:05.649Z,15.98
2023-05-27T04:19:08.346Z,18.73
2023-05-27T04:21:11.016Z,16.15
2023-05-27T04:23:13.633Z,26.30
2023-05-27T04:25:17.648Z,15.07
2023-05-27T04:27:20.225Z,13.55
2023-05-27T04:29:23.680Z,16.98
2023-05-27T04:31:29.629Z,12.98
2023-05-27T04:33:32.385Z,14.05
2023-05-27T04:35:35.651Z,16.20
2023-05-27T04:37:38.728Z,18.77
2023-05-27T04:39:46.499Z,17.85
2023-05-27T04:41:50.562Z,11.32
2023-05-27T04:43:53.170Z,21.65
2023-05-27T04:45:57.035Z,15.55
2023-05-27T04:47:59.844Z,17.88
2023-05-27T04:50:03.882Z,13.45
2023-05-27T04:52:08.232Z,17.73
2023-05-27T04:54:10.959Z,17.42
2023-05-27T04:56:16.086Z,13.35
2023-05-27T04:58:20.131Z,15.10
2023-05-27T05:00:37.206Z,15.55
2023-05-27T05:06:03.486Z,14.90
2023-05-27T05:08:06.711Z,20.55
2023-05-27T05:10:10.753Z,19.02
2023-05-27T05:12:13.868Z,17.25
2023-05-27T05:14:17.831Z,16.08
2023-05-27T05:16:20.682Z,23.30
2023-05-27T05:18:23.401Z,22.60
2023-05-27T05:20:26.376Z,21.33
2023-05-27T05:22:29.996Z,14.07
2023-05-27T05:24:32.712Z,17.10
2023-05-27T05:26:35.286Z,20.08
2023-05-27T05:28:37.901Z,21.38
2023-05-27T05:30:41.863Z,21.65
2023-05-27T05:32:44.555Z,19.45
2023-05-27T05:34:47.321Z,20.88
2023-05-27T05:36:49.935Z,16.75
2023-05-27T05:38:52.563Z,22.40
2023-05-27T05:40:55.505Z,17.80
2023-05-27T05:43:00.451Z,19.20
2023-05-27T05:45:03.088Z,15.10
2023-05-27T05:47:07.256Z,22.65
2023-05-27T05:49:10.209Z,14.63
2023-05-27T05:51:12.989Z,19.88
2023-05-27T05:53:15.663Z,19.05
2023-05-27T05:55:18.311Z,20.30
2023-05-27T05:57:20.899Z,16.20
2023-05-27T05:59:23.542Z,16.15
2023-05-27T06:01:28.019Z,21.30
2023-05-27T06:03:32.132Z,16.95
2023-05-27T06:05:34.896Z,18.58
2023-05-27T06:07:37.634Z,18.13
2023-05-27T06:09:40.307Z,15.38
2023-05-27T06:11:42.934Z,19.38
2023-05-27T06:13:45.682Z,16.92
2023-05-27T06:15:48.339Z,17.45
2023-05-27T06:17:51.059Z,18.17
2023-05-27T06:19:55.008Z,20.85
2023-05-27T06:21:57.644Z,16.23
2023-05-27T06:24:00.782Z,19.65
2023-05-27T06:26:04.556Z,17.05
2023-05-27T06:28:07.371Z,15.85
2023-05-27T06:30:10.847Z,17.25
2023-05-27T06:32:13.472Z,17.70
2023-05-27T06:34:17.174Z,21.58
2023-05-27T06:36:21.230Z,20.13
2023-05-27T06:38:23.856Z,21.35
2023-05-27T06:40:26.583Z,24.48
2023-05-27T06:42:29.211Z,20.88
2023-05-27T06:44:31.844Z,17.55
2023-05-27T06:46:34.624Z,18.10
2023-05-27T06:48:37.390Z,17.30
2023-05-27T06:50:41.902Z,18.10
2023-05-27T06:52:45.950Z,15.25
2023-05-27T06:54:49.260Z,18.35
2023-05-27T06:56:52.138Z,19.23
2023-05-27T06:58:54.760Z,15.48
2023-05-27T07:00:57.434Z,19.35
2023-05-27T07:03:01.587Z,17.73
2023-05-27T07:05:04.689Z,23.92
2023-05-27T07:07:07.359Z,28.98
2023-05-27T07:09:12.213Z,18.40
2023-05-27T07:11:14.882Z,17.45
2023-05-27T07:13:17.488Z,21.15
2023-05-27T07:15:20.336Z,21.85
2023-05-27T07:17:23.015Z,21.90
2023-05-27T07:19:25.637Z,23.25
2023-05-27T07:21:28.378Z,22.27
2023-05-27T07:23:31.027Z,18.77
2023-05-27T07:25:35.012Z,19.40
2023-05-27T07:27:37.711Z,15.48
2023-05-27T07:29:40.313Z,18.52
2023-05-27T07:31:43.055Z,18.73
2023-05-27T07:33:45.735Z,18.58
2023-05-27T07:35:48.466Z,19.45
2023-05-27T07:37:51.066Z,20.27
2023-05-27T07:39:53.758Z,22.92
2023-05-27T07:41:57.793Z,18.27
2023-05-27T07:44:00.835Z,26.70
2023-05-27T07:46:03.555Z,19.95
2023-05-27T07:48:06.383Z,21.15
2023-05-27T07:50:10.181Z,21.65
2023-05-27T07:52:12.814Z,17.23
2023-05-27T07:54:15.442Z,18.55
2023-05-27T07:56:18.288Z,18.35
2023-05-27T07:58:22.286Z,17.63
2023-05-27T08:00:24.998Z,20.90
2023-05-27T08:02:27.663Z,26.65
2023-05-27T08:04:30.435Z,20.67
2023-05-27T08:06:33.139Z,20.48
2023-05-27T08:08:35.757Z,17.63
2023-05-27T08:10:38.356Z,20.00
2023-05-27T08:12:41.047Z,18.50
2023-05-27T08:14:45.911Z,15.90
2023-05-27T08:16:48.652Z,15.88
2023-05-27T08:18:51.638Z,18.65
2023-05-27T08:20:54.599Z,15.65
2023-05-27T08:22:57.525Z,20.45
2023-05-27T08:25:00.139Z,18.40
2023-05-27T08:27:03.689Z,13.05
2023-05-27T08:29:06.601Z,19.10
2023-05-27T08:31:11.467Z,18.27
2023-05-27T08:33:14.230Z,25.65
2023-05-27T08:35:18.148Z,20.33
2023-05-27T08:37:20.777Z,17.52
2023-05-27T08:39:23.603Z,20.80
2023-05-27T08:41:28.110Z,18.75
2023-05-27T08:43:31.529Z,13.27
2023-05-27T08:45:34.413Z,19.00
2023-05-27T08:47:40.930Z,16.70
2023-05-27T08:49:43.667Z,20.48
2023-05-27T08:51:47.528Z,17.42
2023-05-27T08:53:50.544Z,19.88
2023-05-27T08:55:56.203Z,20.65
2023-05-27T08:58:00.795Z,17.10
2023-05-27T09:00:06.239Z,15.30
2023-05-27T09:02:15.425Z,17.95
2023-05-27T09:04:19.543Z,26.85
2023-05-27T09:06:22.289Z,15.68
2023-05-27T09:08:35.145Z,18.40
2023-05-27T09:10:38.844Z,20.70
2023-05-27T09:12:45.321Z,21.80
2023-05-27T09:14:51.361Z,20.88
2023-05-27T09:16:53.964Z,17.75
2023-05-27T09:18:56.577Z,22.67
2023-05-27T09:21:01.665Z,15.65
2023-05-27T09:23:06.428Z,19.60
2023-05-27T09:25:11.458Z,19.15
2023-05-27T09:27:15.575Z,21.90
2023-05-27T09:29:20.303Z,17.38
2023-05-27T09:31:24.098Z,16.70
2023-05-27T09:33:28.218Z,14.40
2023-05-27T09:35:31.040Z,23.65
2023-05-27T09:37:37.063Z,17.67
2023-05-27T09:39:41.049Z,11.98
2023-05-27T09:41:43.935Z,15.10
2023-05-27T09:43:55.793Z,16.85
2023-05-27T09:46:01.239Z,13.75
2023-05-27T09:48:08.986Z,15.63
2023-05-27T09:50:15.242Z,14.18
2023-05-27T09:52:21.567Z,13.95
2023-05-27T09:54:26.294Z,18.65
2023-05-27T09:56:30.351Z,20.90
2023-05-27T09:58:33.135Z,16.63
2023-05-27T10:00:35.995Z,17.13
2023-05-27T10:02:39.779Z,18.98
2023-05-27T10:04:43.204Z,15.40
2023-05-27T10:06:46.830Z,20.38
2023-05-27T10:08:49.625Z,15.65
2023-05-27T10:10:54.165Z,14.02
2023-05-27T10:12:59.270Z,16.55
2023-05-27T10:15:01.958Z,13.23
2023-05-27T10:17:04.931Z,17.35
2023-05-27T10:19:12.574Z,20.95
2023-05-27T10:21:20.595Z,15.57
2023-05-27T10:23:27.524Z,16.30
2023-05-27T10:25:38.215Z,16.05
2023-05-27T10:27:46.324Z,13.38
2023-05-27T10:29:59.489Z,12.18
2023-05-27T10:32:02.288Z,12.93
2023-05-27T10:34:07.012Z,13.57
2023-05-27T10:36:10.975Z,14.10
2023-05-27T10:38:18.502Z,12.93
2023-05-27T10:40:26.391Z,15.60
2023-05-27T10:42:29.079Z,16.52
2023-05-27T10:44:35.510Z,13.50
2023-05-27T10:46:43.069Z,17.15
2023-05-27T10:48:46.331Z,14.32
2023-05-27T10:50:53.131Z,16.52
2023-05-27T10:52:55.847Z,11.60
2023-05-27T10:54:59.077Z,10.93
2023-05-27T10:57:03.843Z,16.83
2023-05-27T10:59:12.043Z,14.80
2023-05-27T11:01:16.689Z,17.50
2023-05-27T11:03:22.686Z,11.90
2023-05-27T11:05:30.613Z,13.60
2023-05-27T11:07:33.212Z,17.17
2023-05-27T11:09:45.011Z,18.45
2023-05-27T11:11:47.667Z,13.15
2023-05-27T11:13:50.351Z,12.35
2023-05-27T11:15:53.059Z,14.10
2023-05-27T11:18:02.440Z,13.43
2023-05-27T11:20:07.659Z,13.75
2023-05-27T11:22:12.377Z,13.68
2023-05-27T11:24:18.860Z,17.00
2023-05-27T11:26:23.755Z,17.20
2023-05-27T11:28:26.721Z,13.93
2023-05-27T11:30:29.865Z,18.95
2023-05-27T11:32:36.321Z,15.25
2023-05-27T11:34:40.849Z,19.55
2023-05-27T11:36:46.498Z,13.70
2023-05-27T11:38:51.543Z,16.33
2023-05-27T11:40:54.432Z,17.05
2023-05-27T11:43:02.187Z,13.68
2023-05-27T11:45:07.910Z,16.25
2023-05-27T11:47:10.560Z,19.38
2023-05-27T11:49:14.714Z,12.98
2023-05-27T11:51:18.764Z,12.20
2023-05-27T11:53:21.411Z,14.52
2023-05-27T11:55:24.233Z,18.17
2023-05-27T11:57:26.961Z,12.73
2023-05-27T11:59:29.608Z,12.20
2023-05-27T12:01:32.258Z,12.35
2023-05-27T12:03:36.067Z,14.88
2023-05-27T12:05:38.767Z,12.80
2023-05-27T12:07:42.811Z,13.77
2023-05-27T12:09:45.425Z,15.70
2023-05-27T12:11:48.095Z,14.40
2023-05-27T12:13:52.223Z,13.45
2023-05-27T12:15:54.931Z,10.88
2023-05-27T12:17:57.932Z,15.25
2023-05-27T12:20:00.623Z,11.90
2023-05-27T12:22:03.272Z,15.95
2023-05-27T12:24:07.879Z,18.45
2023-05-27T12:26:10.956Z,12.95
2023-05-27T12:28:13.546Z,21.20
2023-05-27T12:30:16.352Z,12.82
2023-05-27T12:32:19.076Z,14.05
2023-05-27T12:34:21.687Z,12.93
2023-05-27T12:36:24.256Z,14.07
2023-05-27T12:38:27.070Z,19.30
2023-05-27T12:40:31.220Z,17.42
2023-05-27T12:42:34.372Z,11.35
2023-05-27T12:44:37.012Z,12.07
2023-05-27T12:46:39.646Z,11.95
2023-05-27T12:48:42.236Z,11.93
2023-05-27T12:50:45.058Z,13.93
2023-05-27T12:52:47.909Z,16.00
2023-05-27T12:54:50.476Z,14.13
2023-05-27T12:56:54.512Z,17.85
2023-05-27T12:58:57.152Z,14.57
2023-05-27T13:00:59.882Z,15.50
2023-05-27T13:03:03.003Z,20.08
2023-05-27T13:05:07.820Z,16.95
2023-05-27T13:07:12.147Z,12.85
2023-05-27T13:09:15.115Z,13.57
2023-05-27T13:11:18.432Z,16.60
2023-05-27T13:13:23.166Z,15.90
2023-05-27T13:15:25.999Z,14.82
2023-05-27T13:17:28.968Z,10.55
2023-05-27T13:19:31.568Z,21.25
2023-05-27T13:21:34.245Z,16.52
2023-05-27T13:23:36.992Z,19.35
2023-05-27T13:25:39.660Z,17.67
2023-05-27T13:27:45.533Z,15.10
2023-05-27T13:29:49.673Z,12.35
2023-05-27T13:31:52.287Z,10.10
2023-05-27T13:33:54.890Z,10.40
2023-05-27T13:35:57.580Z,12.35
2023-05-27T13:38:01.410Z,11.57
2023-05-27T13:40:05.550Z,10.48
2023-05-27T13:42:08.451Z,10.55
2023-05-27T13:44:11.054Z,9.30
2023-05-27T13:46:15.102Z,9.30
2023-05-27T13:48:18.100Z,14.32
2023-05-27T13:50:20.858Z,11.95
2023-05-27T13:52:23.604Z,12.65
2023-05-27T13:54:26.381Z,8.90
2023-05-27T13:56:28.969Z,12.45
2023-05-27T13:58:31.602Z,9.13
2023-05-27T14:00:34.236Z,7.97
2023-05-27T14:02:38.158Z,9.32
2023-05-27T14:04:40.802Z,13.77
2023-05-27T14:06:43.443Z,13.32
2023-05-27T14:08:46.522Z,9.50
2023-05-27T14:10:49.091Z,12.48
2023-05-27T14:12:51.707Z,11.68
2023-05-27T14:14:54.351Z,18.73
2023-05-27T14:16:57.693Z,9.07
2023-05-27T14:19:01.844Z,10.70
2023-05-27T14:21:04.850Z,11.65
2023-05-27T14:23:11.730Z,9.15
2023-05-27T14:25:14.403Z,10.30
2023-05-27T14:27:17.043Z,10.25
2023-05-27T14:29:19.725Z,8.57
2023-05-27T14:31:22.423Z,9.90
2023-05-27T14:33:25.036Z,11.48
2023-05-27T14:35:28.973Z,8.90
2023-05-27T14:37:31.594Z,10.30
2023-05-27T14:39:34.200Z,12.95
2023-05-27T14:41:36.807Z,9.75
2023-05-27T14:43:39.424Z,13.55
2023-05-27T14:45:42.156Z,13.68
2023-05-27T14:47:44.777Z,7.35
2023-05-27T14:49:47.346Z,11.18
2023-05-27T14:51:51.252Z,9.50
2023-05-27T14:53:53.828Z,7.95
2023-05-27T14:55:56.590Z,11.00
2023-05-27T14:57:59.260Z,12.88
2023-05-27T15:00:01.959Z,9.98
2023-05-27T15:02:04.962Z,9.60
2023-05-27T15:04:07.785Z,18.58
2023-05-27T15:06:11.621Z,12.63
2023-05-27T15:08:17.009Z,14.00
2023-05-27T15:10:19.646Z,12.10
2023-05-27T15:12:23.306Z,9.80
2023-05-27T15:14:26.517Z,11.80
2023-05-27T15:16:29.475Z,11.25
2023-05-27T15:18:32.119Z,11.70
2023-05-27T15:20:34.778Z,9.52
2023-05-27T15:22:37.440Z,9.82
2023-05-27T15:24:41.399Z,9.45
2023-05-27T15:26:44.065Z,7.40
2023-05-27T15:28:46.656Z,11.68
2023-05-27T15:30:49.360Z,12.30
2023-05-27T15:32:52.008Z,10.10
2023-05-27T15:34:54.693Z,10.20
2023-05-27T15:36:59.413Z,13.25
2023-05-27T15:39:02.060Z,12.40
2023-05-27T15:41:06.637Z,14.32
2023-05-27T15:43:09.786Z,10.18
2023-05-27T15:45:14.265Z,13.75
2023-05-27T15:47:16.997Z,8.90
2023-05-27T15:49:19.603Z,7.90
2023-05-27T15:51:23.654Z,11.65
2023-05-27T15:53:26.894Z,10.27
2023-05-27T15:55:29.577Z,8.65
2023-05-27T15:57:33.644Z,11.32
2023-05-27T15:59:36.555Z,12.27
2023-05-27T16:01:39.433Z,7.28
2023-05-27T16:03:42.149Z,9.90
2023-05-27T16:05:44.822Z,10.27
2023-05-27T16:07:47.408Z,11.35
2023-05-27T16:09:50.009Z,11.20
2023-05-27T16:11:52.856Z,11.27
2023-05-27T16:13:56.831Z,12.07
2023-05-27T16:15:59.425Z,10.13
2023-05-27T16:18:02.239Z,10.82
2023-05-27T16:20:05.797Z,9.00
2023-05-27T16:22:08.442Z,9.77
2023-05-27T16:24:11.527Z,13.38
2023-05-27T16:26:14.871Z,11.07
2023-05-27T16:28:18.616Z,11.98
2023-05-27T16:30:22.901Z,12.88
2023-05-27T16:32:26.290Z,8.82
2023-05-27T16:34:29.702Z,13.73
2023-05-27T16:36:32.861Z,9.13
2023-05-27T16:38:35.891Z,11.07
2023-05-27T16:40:38.621Z,13.38
2023-05-27T16:42:41.328Z,13.48
2023-05-27T16:44:43.914Z,9.10
2023-05-27T16:46:47.970Z,10.93
2023-05-27T16:48:50.742Z,13.55
2023-05-27T16:50:53.352Z,11.68
2023-05-27T16:52:56.004Z,12.82
2023-05-27T16:54:59.566Z,15.77
2023-05-27T16:57:03.396Z,12.30
2023-05-27T16:59:06.035Z,10.73
2023-05-27T17:01:08.775Z,10.15
2023-05-27T17:03:12.930Z,9.77
2023-05-27T17:05:16.838Z,11.13
2023-05-27T17:07:19.639Z,10.55
2023-05-27T17:09:24.125Z,11.38
2023-05-27T17:11:27.640Z,12.65
2023-05-27T17:13:30.380Z,11.90
2023-05-27T17:15:33.131Z,13.95
2023-05-27T17:17:36.547Z,12.20
2023-05-27T17:19:40.621Z,9.68
2023-05-27T17:21:43.301Z,12.38
2023-05-27T17:23:46.134Z,11.35
2023-05-27T17:25:48.746Z,10.75
2023-05-27T17:27:51.486Z,16.15
2023-05-27T17:29:54.637Z,13.10
2023-05-27T17:31:57.458Z,10.07
2023-05-27T17:34:02.390Z,9.98
2023-05-27T17:36:07.425Z,13.88
2023-05-27T17:38:12.090Z,11.52
2023-05-27T17:40:15.072Z,9.43
2023-05-27T17:42:17.722Z,11.60
2023-05-27T17:44:20.383Z,9.90
2023-05-27T17:46:23.309Z,13.45
2023-05-27T17:48:26.184Z,13.63
2023-05-27T17:50:29.020Z,11.00
2023-05-27T17:52:33.046Z,9.05
2023-05-27T17:54:37.650Z,12.77
2023-05-27T17:56:40.388Z,9.23
2023-05-27T17:58:43.059Z,11.85
2023-05-27T18:00:46.719Z,10.77
2023-05-27T18:02:50.760Z,12.93
2023-05-27T18:04:53.828Z,12.07
2023-05-27T18:06:56.554Z,9.57
2023-05-27T18:09:00.712Z,10.63
2023-05-27T18:11:03.856Z,11.93
2023-05-27T18:13:06.776Z,11.70
2023-05-27T18:15:10.889Z,13.00
2023-05-27T18:17:16.031Z,22.88
2023-05-27T18:19:19.146Z,11.93
2023-05-27T18:21:21.824Z,10.30
2023-05-27T18:23:24.912Z,9.88
2023-05-27T18:25:28.854Z,10.50
2023-05-27T18:27:31.618Z,11.73
2023-05-27T18:29:34.909Z,10.68
2023-05-27T18:31:37.826Z,10.77
2023-05-27T18:33:40.621Z,12.32
2023-05-27T18:35:43.818Z,12.60
2023-05-27T18:37:46.765Z,12.40
2023-05-27T18:39:49.457Z,14.10
2023-05-27T18:41:53.645Z,10.25
2023-05-27T18:43:56.314Z,13.15
2023-05-27T18:46:00.654Z,14.95
2023-05-27T18:48:03.481Z,12.00
2023-05-27T18:50:08.104Z,12.65
2023-05-27T18:52:11.965Z,11.90
2023-05-27T18:54:14.575Z,13.05
2023-05-27T18:56:18.654Z,13.77
2023-05-27T18:58:22.679Z,13.93
2023-05-27T19:00:25.363Z,9.77
2023-05-27T19:02:28.140Z,14.20
2023-05-27T19:04:31.153Z,12.68
2023-05-27T19:06:34.062Z,13.55
2023-05-27T19:08:36.664Z,13.25
2023-05-27T19:10:40.877Z,15.32
2023-05-27T19:12:43.558Z,15.90
2023-05-27T19:14:47.616Z,16.52
2023-05-27T19:16:50.285Z,17.13
2023-05-27T19:18:54.375Z,16.63
2023-05-27T19:20:57.032Z,11.07
2023-05-27T19:23:02.302Z,10.73
2023-05-27T19:25:05.456Z,11.38
2023-05-27T19:27:08.161Z,11.95
2023-05-27T19:29:10.985Z,14.65
2023-05-27T19:31:14.945Z,16.85
2023-05-27T19:33:17.743Z,24.48
2023-05-27T19:35:20.366Z,14.02
2023-05-27T19:37:23.071Z,21.48
2023-05-27T19:39:25.713Z,15.43
2023-05-27T19:41:28.421Z,16.17
2023-05-27T19:43:31.048Z,19.92
2023-05-27T19:45:33.717Z,15.80
2023-05-27T19:47:37.728Z,17.88
2023-05-27T19:49:40.350Z,17.05
2023-05-27T19:51:43.005Z,16.55
2023-05-27T19:53:45.906Z,15.65
2023-05-27T19:55:48.540Z,20.65
2023-05-27T19:57:51.186Z,17.65
2023-05-27T19:59:54.376Z,16.02
2023-05-27T20:01:57.017Z,17.48
2023-05-27T20:04:01.290Z,11.98
2023-05-27T20:06:04.017Z,14.23
2023-05-27T20:08:06.624Z,16.85
2023-05-27T20:10:10.540Z,17.02
2023-05-27T20:12:13.171Z,13.85
2023-05-27T20:14:20.838Z,20.55
2023-05-27T20:16:24.333Z,16.25
2023-05-27T20:18:27.988Z,15.18
2023-05-27T20:20:37.675Z,13.25
2023-05-27T20:22:41.405Z,14.85
2023-05-27T20:24:44.135Z,16.63
2023-05-27T20:26:46.867Z,19.20
2023-05-27T20:28:49.492Z,12.73
2023-05-27T20:30:53.078Z,10.40
2023-05-27T20:32:56.387Z,16.20
2023-05-27T20:34:59.087Z,15.43
2023-05-27T20:37:03.062Z,19.60
2023-05-27T20:39:05.753Z,18.60
2023-05-27T20:41:09.650Z,23.35
2023-05-27T20:43:12.357Z,16.83
2023-05-27T20:45:16.144Z,19.38
2023-05-27T20:47:18.870Z,23.33
2023-05-27T20:49:21.537Z,23.70
2023-05-27T20:51:24.577Z,27.25
2023-05-27T20:53:28.636Z,19.25
2023-05-27T20:55:31.298Z,24.40
2023-05-27T20:57:33.894Z,15.13
2023-05-27T20:59:36.628Z,20.50
2023-05-27T21:01:40.829Z,20.65
2023-05-27T21:03:43.945Z,22.95
2023-05-27T21:05:47.564Z,20.70
2023-05-27T21:07:52.443Z,18.10
2023-05-27T21:09:56.452Z,17.83
2023-05-27T21:11:59.146Z,18.88
2023-05-27T21:14:01.847Z,17.60
2023-05-27T21:16:04.595Z,15.75
2023-05-27T21:18:10.056Z,21.17
2023-05-27T21:20:13.507Z,11.85
2023-05-27T21:22:16.537Z,17.40
2023-05-27T21:24:19.407Z,19.77
2023-05-27T21:26:23.605Z,25.23
2023-05-27T21:28:26.467Z,19.88
2023-05-27T21:30:29.106Z,24.25
2023-05-27T21:32:31.821Z,24.95
2023-05-27T21:34:34.517Z,21.95
2023-05-27T21:36:37.352Z,27.83
2023-05-27T21:38:40.141Z,26.13
2023-05-27T21:40:42.795Z,27.63
2023-05-27T21:42:46.840Z,25.23
2023-05-27T21:44:50.688Z,27.52
2023-05-27T21:46:54.001Z,22.00
2023-05-27T21:48:56.662Z,22.90
2023-05-27T21:50:59.319Z,20.80
2023-05-27T21:53:04.711Z,28.70
2023-05-27T21:55:08.175Z,21.98
2023-05-27T21:57:10.800Z,21.42
2023-05-27T21:59:14.769Z,21.98
2023-05-27T22:01:17.559Z,28.73
2023-05-27T22:03:20.363Z,23.40
2023-05-27T22:05:23.071Z,23.92
2023-05-27T22:07:25.718Z,25.13
2023-05-27T22:09:28.344Z,21.63
2023-05-27T22:11:30.979Z,23.38
2023-05-27T22:13:33.673Z,21.55
2023-05-27T22:15:37.625Z,22.27
2023-05-27T22:17:40.370Z,23.15
2023-05-27T22:19:43.912Z,23.10
2023-05-27T22:21:46.517Z,17.33
2023-05-27T22:23:49.217Z,23.88
2023-05-27T22:25:51.974Z,16.98
2023-05-27T22:27:55.646Z,21.83
2023-05-27T22:29:58.273Z,21.58
2023-05-27T22:32:02.531Z,19.92
2023-05-27T22:34:06.186Z,19.30
2023-05-27T22:36:12.023Z,17.92
2023-05-27T22:38:14.844Z,17.45
2023-05-27T22:40:19.125Z,22.42
2023-05-27T22:42:21.707Z,22.58
2023-05-27T22:44:24.386Z,18.38
2023-05-27T22:46:29.973Z,16.77
2023-05-27T22:48:34.076Z,18.10
2023-05-27T22:50:36.807Z,21.00
2023-05-27T22:52:39.622Z,20.48
2023-05-27T22:54:42.310Z,23.48
2023-05-27T22:56:45.010Z,23.08
2023-05-27T22:58:48.508Z,23.45
2023-05-27T23:00:51.326Z,25.98
2023-05-27T23:02:54.030Z,24.90
2023-05-27T23:04:58.128Z,26.08
2023-05-27T23:07:00.908Z,19.10
2023-05-27T23:09:03.699Z,15.25
2023-05-27T23:11:06.565Z,19.70
2023-05-27T23:13:09.452Z,19.08
2023-05-27T23:15:12.161Z,20.08
2023-05-27T23:17:14.874Z,19.30
2023-05-27T23:19:17.523Z,14.48
2023-05-27T23:21:21.579Z,15.15
2023-05-27T23:23:24.186Z,16.45
2023-05-27T23:25:26.981Z,17.02
2023-05-27T23:27:29.587Z,14.93
2023-05-27T23:29:32.278Z,15.85
2023-05-27T23:31:34.939Z,17.17
2023-05-27T23:33:37.569Z,17.02
2023-05-27T23:35:40.222Z,18.75
2023-05-27T23:37:44.204Z,15.70
2023-05-27T23:39:46.888Z,16.33
2023-05-27T23:41:49.622Z,23.17
2023-05-27T23:43:52.323Z,19.08
2023-05-27T23:45:55.264Z,22.73
2023-05-27T23:47:58.267Z,18.90
2023-05-27T23:50:01.029Z,19.17
2023-05-27T23:52:04.030Z,18.10
2023-05-27T23:54:08.081Z,18.83
2023-05-27T23:56:10.847Z,18.75
2023-05-27T23:58:15.393Z,19.77
